Dover AFB, Delaware
Current Conditions -  °F | °C
As of 7:00 AM on Tuesday 27 Jan 2015 (Local Time) from KDOV Reporting Station
Overcast Overcast  
Wind Chill: 13°   Ceiling: 4100
Heat Index: 27°   Visibility: 10mi
Dew Point: 23°   Wind: 18mph
Humidity: 86%   Direction: 340°NNW
Pressure: 29.73"   Gusts: 28mph
Location:  39.16°N, 75.52°W
Report Text: KDOV 271200Z 34016G24KT 10SM SCT025 OVC041 M03/M05 A2973 RMK AO2A UPE1201 CIG 028 RWY19 $
Loading
Personal Weather Stations






























Interactive Weather Map New forecast layout! Learn more

10-Day Weather Forecast

Advertisements
Track Severe Weather on mobile